createdAt,value
2019-02-10T00:00:16.152Z,0.00
2019-02-10T00:01:16.188Z,0.00
2019-02-10T00:02:16.239Z,0.00
2019-02-10T00:03:16.284Z,0.00
2019-02-10T00:04:16.332Z,0.00
2019-02-10T00:05:16.374Z,0.00
2019-02-10T00:06:24.286Z,0.00
2019-02-10T00:07:16.470Z,0.00
2019-02-10T00:08:16.554Z,0.00
2019-02-10T00:09:16.592Z,0.00
2019-02-10T00:10:16.619Z,0.00
2019-02-10T00:11:16.668Z,0.00
2019-02-10T00:12:16.719Z,0.00
2019-02-10T00:13:16.756Z,0.00
2019-02-10T00:14:16.799Z,0.00
2019-02-10T00:15:16.873Z,0.00
2019-02-10T00:16:16.905Z,0.00
2019-02-10T00:17:16.936Z,0.00
2019-02-10T00:18:17.005Z,0.00
2019-02-10T00:19:17.061Z,0.00
2019-02-10T00:20:17.095Z,0.00
2019-02-10T00:21:17.151Z,0.00
2019-02-10T00:22:17.204Z,0.00
2019-02-10T00:23:17.240Z,0.00
2019-02-10T00:24:17.281Z,0.00
2019-02-10T00:25:17.339Z,0.00
2019-02-10T00:26:17.382Z,0.00
2019-02-10T00:27:17.425Z,0.00
2019-02-10T00:28:17.496Z,0.00
2019-02-10T00:29:17.524Z,0.00
2019-02-10T00:30:17.616Z,0.00
2019-02-10T00:31:17.620Z,0.00
2019-02-10T00:32:17.669Z,0.00
2019-02-10T00:33:17.695Z,0.00
2019-02-10T00:34:17.755Z,0.00
2019-02-10T00:35:17.808Z,0.00
2019-02-10T00:36:17.847Z,0.00
2019-02-10T00:37:17.921Z,0.00
2019-02-10T00:38:17.993Z,0.00
2019-02-10T00:39:18.011Z,0.00
2019-02-10T00:40:18.052Z,0.00
2019-02-10T00:41:18.100Z,0.00
2019-02-10T00:42:18.144Z,0.00
2019-02-10T00:43:18.180Z,0.00
2019-02-10T00:44:18.244Z,0.00
2019-02-10T00:45:18.281Z,0.00
2019-02-10T00:46:18.329Z,0.00
2019-02-10T00:47:18.379Z,0.00
2019-02-10T00:48:18.440Z,0.00
2019-02-10T00:49:18.509Z,0.00
2019-02-10T00:50:18.544Z,0.00
2019-02-10T00:51:18.586Z,0.00
2019-02-10T00:52:18.613Z,0.00
2019-02-10T00:53:18.658Z,0.00
2019-02-10T00:54:18.741Z,0.00
2019-02-10T00:55:18.757Z,0.00
2019-02-10T00:56:18.818Z,0.00
2019-02-10T00:57:18.860Z,0.00
2019-02-10T00:58:18.914Z,0.00
2019-02-10T00:59:18.946Z,0.00
2019-02-10T01:00:18.996Z,0.00
2019-02-10T01:01:19.051Z,0.00
2019-02-10T01:02:19.085Z,0.00
2019-02-10T01:03:19.244Z,0.00
2019-02-10T01:04:19.195Z,0.00
2019-02-10T01:05:19.230Z,0.00
2019-02-10T01:06:19.293Z,0.00
2019-02-10T01:07:19.333Z,0.00
2019-02-10T01:08:19.374Z,0.00
2019-02-10T01:09:19.411Z,0.00
2019-02-10T01:10:19.476Z,0.00
2019-02-10T01:11:19.529Z,0.00
2019-02-10T01:12:19.578Z,0.00
2019-02-10T01:13:19.624Z,0.00
2019-02-10T01:14:19.660Z,0.00
2019-02-10T01:15:19.722Z,0.00
2019-02-10T01:16:19.769Z,0.00
2019-02-10T01:17:19.819Z,0.00
2019-02-10T01:18:19.849Z,0.00
2019-02-10T01:19:19.884Z,0.00
2019-02-10T01:20:19.938Z,0.00
2019-02-10T01:21:19.993Z,0.00
2019-02-10T01:22:20.039Z,0.00
2019-02-10T01:23:20.085Z,0.00
2019-02-10T01:24:20.131Z,0.00
2019-02-10T01:25:20.178Z,0.00
2019-02-10T01:26:20.238Z,0.00
2019-02-10T01:27:20.274Z,0.00
2019-02-10T01:28:20.342Z,0.00
2019-02-10T01:29:20.367Z,0.00
2019-02-10T01:30:20.416Z,0.00
2019-02-10T01:31:20.453Z,0.00
2019-02-10T01:32:20.498Z,0.00
2019-02-10T01:33:20.581Z,0.00
2019-02-10T01:34:20.601Z,0.00
2019-02-10T01:35:20.658Z,0.00
2019-02-10T01:36:20.707Z,0.00
2019-02-10T01:37:20.746Z,0.00
2019-02-10T01:38:20.780Z,0.00
2019-02-10T01:39:20.859Z,0.00
2019-02-10T01:40:20.901Z,0.00
2019-02-10T01:41:20.940Z,0.00
2019-02-10T01:42:20.995Z,0.00
2019-02-10T01:43:21.026Z,0.00
2019-02-10T01:44:21.079Z,0.00
2019-02-10T01:45:21.150Z,0.00
2019-02-10T01:46:21.222Z,0.00
2019-02-10T01:47:21.223Z,0.00
2019-02-10T01:48:21.269Z,0.00
2019-02-10T01:49:21.308Z,0.00
2019-02-10T01:50:21.410Z,0.00
2019-02-10T01:51:21.412Z,0.00
2019-02-10T01:52:21.447Z,0.00
2019-02-10T01:53:21.513Z,0.00
2019-02-10T01:54:21.534Z,0.00
2019-02-10T01:55:21.614Z,0.00
2019-02-10T01:56:21.650Z,0.00
2019-02-10T01:57:21.676Z,0.00
2019-02-10T01:58:21.744Z,0.00
2019-02-10T01:59:21.797Z,0.00
2019-02-10T02:00:21.887Z,0.00
2019-02-10T02:01:21.877Z,0.00
2019-02-10T02:02:21.909Z,0.00
2019-02-10T02:03:21.990Z,0.00
2019-02-10T02:04:22.023Z,0.00
2019-02-10T02:05:22.063Z,0.00
2019-02-10T02:06:22.127Z,0.00
2019-02-10T02:07:22.224Z,0.00
2019-02-10T02:08:22.230Z,0.00
2019-02-10T02:09:22.240Z,0.00
2019-02-10T02:10:22.307Z,0.00
2019-02-10T02:11:22.332Z,0.00
2019-02-10T02:12:22.390Z,0.00
2019-02-10T02:13:22.440Z,0.00
2019-02-10T02:14:22.509Z,0.00
2019-02-10T02:15:22.535Z,0.00
2019-02-10T02:16:22.585Z,0.00
2019-02-10T02:17:22.639Z,0.00
2019-02-10T02:18:22.678Z,0.00
2019-02-10T02:19:22.755Z,0.00
2019-02-10T02:20:22.790Z,0.00
2019-02-10T02:21:22.833Z,0.00
2019-02-10T02:22:22.878Z,0.00
2019-02-10T02:23:22.926Z,0.00
2019-02-10T02:24:22.973Z,0.00
2019-02-10T02:25:23.022Z,0.00
2019-02-10T02:26:23.042Z,0.00
2019-02-10T02:27:23.118Z,0.00
2019-02-10T02:28:23.157Z,0.00
2019-02-10T02:29:23.202Z,0.00
2019-02-10T02:30:23.298Z,0.00
2019-02-10T02:31:23.309Z,0.00
2019-02-10T02:32:23.325Z,0.00
2019-02-10T02:33:23.382Z,0.00
2019-02-10T02:34:23.441Z,0.00
2019-02-10T02:35:23.525Z,0.00
2019-02-10T02:36:23.538Z,0.00
2019-02-10T02:37:23.574Z,0.00
2019-02-10T02:38:23.605Z,0.00
2019-02-10T02:39:23.673Z,0.00
2019-02-10T02:40:23.704Z,0.00
2019-02-10T02:41:23.757Z,0.00
2019-02-10T02:42:23.812Z,0.00
2019-02-10T02:43:23.862Z,0.00
2019-02-10T02:44:23.906Z,0.00
2019-02-10T02:45:23.980Z,0.00
2019-02-10T02:46:23.985Z,0.00
2019-02-10T02:47:24.061Z,0.00
2019-02-10T02:48:24.083Z,0.00
2019-02-10T02:49:24.196Z,0.00
2019-02-10T02:50:24.167Z,0.00
2019-02-10T02:51:24.243Z,0.00
2019-02-10T02:52:24.325Z,0.00
2019-02-10T02:53:24.373Z,0.00
2019-02-10T02:54:24.429Z,0.00
2019-02-10T02:55:24.414Z,0.00
2019-02-10T02:56:24.481Z,0.00
2019-02-10T02:57:24.503Z,0.00
2019-02-10T02:58:24.564Z,0.00
2019-02-10T02:59:24.611Z,0.00
2019-02-10T03:00:24.645Z,0.00
2019-02-10T03:01:24.707Z,0.00
2019-02-10T03:02:24.742Z,0.00
2019-02-10T03:03:24.834Z,0.00
2019-02-10T03:04:24.830Z,0.00
2019-02-10T03:05:24.871Z,0.00
2019-02-10T03:06:24.932Z,0.00
2019-02-10T03:07:25.003Z,0.00
2019-02-10T03:08:25.000Z,0.00
2019-02-10T03:09:25.087Z,0.00
2019-02-10T03:10:25.131Z,0.00
2019-02-10T03:11:25.161Z,0.00
2019-02-10T03:12:25.226Z,0.00
2019-02-10T03:13:25.268Z,0.00
2019-02-10T03:14:25.313Z,0.00
2019-02-10T03:15:25.364Z,0.00
2019-02-10T03:16:25.408Z,0.00
2019-02-10T03:17:25.445Z,0.00
2019-02-10T03:18:25.487Z,0.00
2019-02-10T03:19:25.568Z,0.00
2019-02-10T03:20:25.589Z,0.00
2019-02-10T03:21:25.636Z,0.00
2019-02-10T03:22:25.654Z,0.00
2019-02-10T03:23:25.751Z,0.00
2019-02-10T03:24:25.750Z,0.00
2019-02-10T03:25:25.810Z,0.00
2019-02-10T03:26:25.853Z,0.00
2019-02-10T03:27:25.893Z,0.00
2019-02-10T03:28:25.941Z,0.00
2019-02-10T03:29:26.029Z,0.00
2019-02-10T03:30:26.060Z,0.00
2019-02-10T03:31:26.080Z,0.00
2019-02-10T03:32:26.144Z,0.00
2019-02-10T03:33:26.203Z,0.00
2019-02-10T03:34:26.221Z,0.00
2019-02-10T03:35:26.290Z,0.00
2019-02-10T03:36:26.366Z,0.00
2019-02-10T03:37:27.497Z,0.00
2019-02-10T03:38:26.471Z,0.00
2019-02-10T03:39:26.479Z,0.00
2019-02-10T03:40:26.520Z,0.00
2019-02-10T03:41:26.645Z,0.00
2019-02-10T03:42:26.611Z,0.00
2019-02-10T03:43:26.640Z,0.00
2019-02-10T03:44:26.704Z,0.00
2019-02-10T03:45:26.731Z,0.00
2019-02-10T03:46:26.802Z,0.00
2019-02-10T03:47:26.834Z,0.00
2019-02-10T03:48:26.896Z,0.00
2019-02-10T03:49:26.967Z,0.00
2019-02-10T03:50:26.970Z,0.00
2019-02-10T03:51:27.008Z,0.00
2019-02-10T03:52:27.112Z,0.00
2019-02-10T03:53:27.098Z,0.00
2019-02-10T03:54:27.140Z,0.00
2019-02-10T03:55:27.227Z,0.00
2019-02-10T03:56:27.242Z,0.00
2019-02-10T03:57:27.303Z,0.00
2019-02-10T03:58:27.320Z,0.00
2019-02-10T03:59:27.382Z,0.00
2019-02-10T04:00:27.424Z,0.00
2019-02-10T04:01:27.490Z,0.00
2019-02-10T04:02:27.558Z,0.00
2019-02-10T04:03:27.607Z,0.00
2019-02-10T04:04:27.601Z,0.00
2019-02-10T04:05:27.653Z,0.00
2019-02-10T04:06:27.705Z,0.00
2019-02-10T04:07:35.627Z,0.00
2019-02-10T04:08:27.805Z,0.00
2019-02-10T04:09:27.881Z,0.00
2019-02-10T04:10:27.901Z,0.00
2019-02-10T04:11:27.945Z,0.00
2019-02-10T04:12:28.030Z,0.00
2019-02-10T04:13:28.030Z,0.00
2019-02-10T04:14:28.070Z,0.00
2019-02-10T04:15:28.110Z,0.00
2019-02-10T04:16:28.160Z,0.00
2019-02-10T04:17:28.220Z,0.00
2019-02-10T04:18:28.263Z,0.00
2019-02-10T04:19:28.319Z,0.00
2019-02-10T04:20:28.347Z,0.00
2019-02-10T04:21:28.426Z,0.00
2019-02-10T04:22:28.449Z,0.00
2019-02-10T04:23:28.475Z,0.00
2019-02-10T04:24:28.530Z,0.00
2019-02-10T04:25:28.587Z,0.00
2019-02-10T04:26:28.633Z,0.00
2019-02-10T04:27:28.700Z,0.00
2019-02-10T04:28:28.717Z,0.00
2019-02-10T04:29:28.740Z,0.00
2019-02-10T04:30:28.812Z,0.00
2019-02-10T04:31:28.867Z,0.00
2019-02-10T04:32:28.905Z,0.00
2019-02-10T04:33:28.931Z,0.00
2019-02-10T04:34:28.982Z,0.00
2019-02-10T04:35:29.023Z,0.00
2019-02-10T04:36:29.083Z,0.00
2019-02-10T04:37:29.114Z,0.00
2019-02-10T04:38:29.176Z,0.00
2019-02-10T04:39:29.213Z,0.00
2019-02-10T04:40:29.258Z,0.00
2019-02-10T04:41:29.314Z,0.00
2019-02-10T04:42:29.350Z,0.00
2019-02-10T04:43:29.398Z,0.00
2019-02-10T04:44:29.440Z,0.00
2019-02-10T04:45:29.482Z,0.00
2019-02-10T04:46:29.651Z,0.00
2019-02-10T04:47:29.585Z,0.00
2019-02-10T04:48:29.669Z,0.00
2019-02-10T04:49:29.676Z,0.00
2019-02-10T04:50:29.709Z,0.00
2019-02-10T04:51:29.767Z,0.00
2019-02-10T04:52:29.816Z,0.00
2019-02-10T04:53:29.866Z,0.00
2019-02-10T04:54:29.875Z,0.00
2019-02-10T04:55:29.981Z,0.00
2019-02-10T04:56:30.006Z,0.00
2019-02-10T04:57:30.051Z,0.00
2019-02-10T04:58:30.061Z,0.00
2019-02-10T04:59:30.113Z,0.00
2019-02-10T05:00:30.159Z,0.00
2019-02-10T05:01:30.317Z,0.00
2019-02-10T05:02:30.270Z,0.00
2019-02-10T05:03:30.306Z,0.00
2019-02-10T05:04:30.326Z,0.00
2019-02-10T05:05:30.399Z,0.00
2019-02-10T05:06:30.433Z,0.00
2019-02-10T05:07:30.493Z,0.00
2019-02-10T05:08:30.518Z,0.00
2019-02-10T05:09:30.583Z,0.00
2019-02-10T05:10:30.635Z,0.00
2019-02-10T05:11:30.684Z,0.00
2019-02-10T05:12:30.797Z,0.00
2019-02-10T05:13:30.769Z,0.00
2019-02-10T05:14:30.833Z,0.00
2019-02-10T05:15:30.856Z,0.00
2019-02-10T05:16:30.889Z,0.00
2019-02-10T05:17:30.944Z,0.00
2019-02-10T05:18:30.984Z,0.00
2019-02-10T05:19:31.037Z,0.00
2019-02-10T05:20:31.087Z,0.00
2019-02-10T05:21:31.134Z,0.00
2019-02-10T05:22:31.154Z,0.00
2019-02-10T05:23:31.223Z,0.00
2019-02-10T05:24:31.256Z,0.00
2019-02-10T05:25:31.337Z,0.00
2019-02-10T05:26:31.344Z,0.00
2019-02-10T05:27:31.410Z,0.00
2019-02-10T05:28:31.478Z,0.00
2019-02-10T05:29:31.481Z,0.00
2019-02-10T05:30:31.550Z,0.00
2019-02-10T05:31:31.583Z,0.00
2019-02-10T05:32:31.626Z,0.00
2019-02-10T05:33:31.662Z,0.00
2019-02-10T05:34:31.736Z,0.00
2019-02-10T05:35:31.751Z,0.00
2019-02-10T05:36:31.790Z,0.00
2019-02-10T05:37:31.870Z,0.00
2019-02-10T05:38:31.893Z,0.00
2019-02-10T05:39:31.937Z,0.00
2019-02-10T05:40:31.991Z,0.00
2019-02-10T05:41:32.030Z,0.00
2019-02-10T05:42:32.076Z,0.00
2019-02-10T05:43:32.146Z,0.00
2019-02-10T05:44:32.150Z,0.00
2019-02-10T05:45:32.222Z,0.00
2019-02-10T05:46:32.262Z,0.00
2019-02-10T05:47:32.307Z,0.00
2019-02-10T05:48:32.361Z,0.00
2019-02-10T05:49:32.371Z,0.00
2019-02-10T05:50:32.472Z,0.00
2019-02-10T05:51:32.494Z,0.00
2019-02-10T05:52:32.542Z,0.00
2019-02-10T05:53:32.567Z,0.00
2019-02-10T05:54:32.602Z,0.00
2019-02-10T05:55:32.779Z,0.00
2019-02-10T05:56:32.727Z,0.00
2019-02-10T05:57:32.769Z,0.00
2019-02-10T05:58:32.818Z,0.00
2019-02-10T05:59:32.861Z,0.00
2019-02-10T06:00:32.913Z,0.00
2019-02-10T06:01:32.945Z,0.00
2019-02-10T06:02:32.981Z,0.00
2019-02-10T06:03:33.015Z,0.00
2019-02-10T06:04:33.054Z,0.00
2019-02-10T06:05:33.118Z,0.00
2019-02-10T06:06:33.150Z,0.00
2019-02-10T06:07:33.253Z,0.00
2019-02-10T06:08:33.245Z,0.00
2019-02-10T06:09:33.293Z,0.00
2019-02-10T06:10:33.349Z,0.00
2019-02-10T06:11:33.398Z,0.00
2019-02-10T06:12:33.481Z,0.00
2019-02-10T06:13:33.523Z,0.00
2019-02-10T06:14:33.530Z,0.00
2019-02-10T06:15:33.608Z,0.00
2019-02-10T06:16:33.614Z,0.00
2019-02-10T06:17:33.699Z,0.00
2019-02-10T06:18:33.708Z,0.00
2019-02-10T06:19:33.808Z,0.00
2019-02-10T06:20:33.832Z,0.00
2019-02-10T06:21:33.828Z,0.00
2019-02-10T06:22:33.877Z,0.00
2019-02-10T06:23:33.918Z,0.00
2019-02-10T06:24:33.976Z,0.00
2019-02-10T06:25:34.036Z,0.00
2019-02-10T06:26:34.055Z,0.00
2019-02-10T06:27:34.114Z,0.00
2019-02-10T06:28:34.195Z,0.00
2019-02-10T06:29:34.206Z,0.00
2019-02-10T06:30:34.240Z,0.00
2019-02-10T06:31:34.284Z,0.00
2019-02-10T06:32:34.342Z,0.00
2019-02-10T06:33:34.419Z,0.00
2019-02-10T06:34:34.428Z,0.00
2019-02-10T06:35:34.463Z,0.00
2019-02-10T06:36:34.537Z,0.00
2019-02-10T06:37:34.562Z,0.00
2019-02-10T06:38:34.599Z,0.00
2019-02-10T06:39:34.644Z,0.00
2019-02-10T06:40:34.701Z,0.00
2019-02-10T06:41:34.765Z,0.00
2019-02-10T06:42:34.771Z,0.00
2019-02-10T06:43:34.825Z,0.00
2019-02-10T06:44:34.849Z,0.00
2019-02-10T06:45:34.927Z,0.00
2019-02-10T06:46:34.959Z,0.00
2019-02-10T06:47:35.018Z,0.00
2019-02-10T06:48:35.060Z,0.00
2019-02-10T06:49:35.105Z,0.00
2019-02-10T06:50:35.162Z,0.00
2019-02-10T06:51:35.179Z,0.00
2019-02-10T06:52:35.240Z,0.00
2019-02-10T06:53:35.275Z,0.00
2019-02-10T06:54:35.302Z,0.00
2019-02-10T06:55:35.360Z,0.00
2019-02-10T06:56:35.426Z,0.00
2019-02-10T06:57:35.500Z,0.00
2019-02-10T06:58:35.510Z,0.00
2019-02-10T06:59:35.636Z,0.00
2019-02-10T07:00:35.605Z,0.00
2019-02-10T07:01:35.653Z,0.00
2019-02-10T07:02:35.679Z,0.00
2019-02-10T07:03:35.748Z,0.00
2019-02-10T07:04:35.790Z,0.00
2019-02-10T07:05:35.822Z,0.00
2019-02-10T07:06:35.868Z,0.00
2019-02-10T07:07:35.909Z,0.00
2019-02-10T07:08:35.948Z,0.00
2019-02-10T07:09:36.004Z,0.00
2019-02-10T07:10:36.059Z,0.00
2019-02-10T07:11:36.114Z,0.00
2019-02-10T07:12:36.147Z,0.00
2019-02-10T07:13:36.174Z,0.00
2019-02-10T07:14:36.246Z,0.00
2019-02-10T07:15:36.287Z,0.00
2019-02-10T07:16:36.312Z,0.00
2019-02-10T07:17:36.373Z,0.00
2019-02-10T07:18:36.417Z,0.00
2019-02-10T07:19:36.461Z,0.00
2019-02-10T07:20:36.505Z,0.00
2019-02-10T07:21:36.549Z,0.00
2019-02-10T07:22:36.617Z,0.00
2019-02-10T07:23:36.639Z,0.00
2019-02-10T07:24:36.687Z,0.00
2019-02-10T07:25:36.731Z,0.00
2019-02-10T07:26:36.782Z,0.00
2019-02-10T07:27:36.799Z,0.00
2019-02-10T07:28:36.853Z,0.00
2019-02-10T07:29:36.917Z,0.00
2019-02-10T07:30:36.989Z,0.00
2019-02-10T07:31:36.987Z,0.00
2019-02-10T07:32:37.056Z,0.00
2019-02-10T07:33:37.068Z,0.00
2019-02-10T07:34:37.109Z,0.00
2019-02-10T07:35:37.188Z,0.00
2019-02-10T07:36:37.221Z,0.00
2019-02-10T07:37:37.277Z,0.00
2019-02-10T07:38:38.758Z,0.00
2019-02-10T07:39:37.393Z,0.00
2019-02-10T07:40:37.399Z,0.00
2019-02-10T07:41:37.457Z,0.00
2019-02-10T07:42:37.488Z,0.00
2019-02-10T07:43:37.524Z,0.00
2019-02-10T07:44:37.586Z,0.00
2019-02-10T07:45:37.650Z,0.00
2019-02-10T07:46:37.668Z,0.00
2019-02-10T07:47:37.721Z,0.00
2019-02-10T07:48:37.767Z,0.00
2019-02-10T07:49:37.805Z,0.00
2019-02-10T07:50:37.839Z,0.00
2019-02-10T07:51:37.985Z,0.00
2019-02-10T07:52:37.980Z,0.00
2019-02-10T07:53:37.967Z,0.00
2019-02-10T07:54:42.346Z,0.00
2019-02-10T07:55:38.088Z,0.00
2019-02-10T07:56:38.129Z,0.00
2019-02-10T07:57:38.151Z,0.00
2019-02-10T07:58:38.202Z,0.00
2019-02-10T07:59:38.236Z,0.00
2019-02-10T08:00:38.286Z,0.00
2019-02-10T08:01:38.350Z,0.00
2019-02-10T08:02:38.390Z,0.00
2019-02-10T08:03:38.428Z,0.00
2019-02-10T08:04:38.448Z,0.00
2019-02-10T08:05:38.533Z,0.00
2019-02-10T08:06:38.670Z,0.00
2019-02-10T08:07:38.615Z,0.00
2019-02-10T08:08:46.282Z,0.00
2019-02-10T08:09:38.685Z,0.00
2019-02-10T08:10:38.748Z,0.00
2019-02-10T08:11:38.785Z,0.00
2019-02-10T08:12:38.830Z,0.00
2019-02-10T08:13:38.861Z,0.00
2019-02-10T08:14:38.910Z,0.00
2019-02-10T08:15:38.948Z,0.00
2019-02-10T08:16:39.016Z,0.00
2019-02-10T08:17:39.062Z,0.00
2019-02-10T08:18:39.113Z,0.00
2019-02-10T08:19:39.146Z,0.00
2019-02-10T08:20:40.548Z,0.00
2019-02-10T08:21:39.277Z,0.00
2019-02-10T08:22:39.275Z,0.00
2019-02-10T08:23:39.353Z,0.00
2019-02-10T08:24:39.385Z,0.00
2019-02-10T08:25:39.430Z,0.00
2019-02-10T08:26:39.449Z,0.00
2019-02-10T08:27:39.479Z,0.00
2019-02-10T08:28:39.525Z,0.00
2019-02-10T08:29:39.616Z,0.00
2019-02-10T08:30:39.666Z,0.00
2019-02-10T08:31:39.686Z,0.00
2019-02-10T08:32:39.729Z,0.00
2019-02-10T08:33:39.765Z,0.00
2019-02-10T08:34:39.804Z,0.00
2019-02-10T08:35:39.872Z,0.00
2019-02-10T08:36:39.906Z,0.00
2019-02-10T08:37:39.986Z,0.00
2019-02-10T08:38:40.090Z,0.00
2019-02-10T08:39:40.046Z,0.00
2019-02-10T08:40:40.077Z,0.00
2019-02-10T08:41:40.135Z,0.00
2019-02-10T08:42:40.224Z,5.63
2019-02-10T08:43:40.256Z,5.63
2019-02-10T08:44:40.275Z,5.63
2019-02-10T08:45:40.337Z,5.63
2019-02-10T08:46:40.331Z,5.63
2019-02-10T08:47:40.409Z,5.63
2019-02-10T08:48:40.444Z,5.63
2019-02-10T08:49:40.490Z,5.63
2019-02-10T08:50:40.518Z,11.25
2019-02-10T08:51:40.557Z,11.25
2019-02-10T08:52:40.604Z,11.25
2019-02-10T08:53:40.672Z,16.88
2019-02-10T08:54:40.718Z,16.88
2019-02-10T08:55:40.755Z,16.88
2019-02-10T08:56:40.792Z,22.50
2019-02-10T08:57:40.857Z,22.50
2019-02-10T08:58:40.905Z,28.13
2019-02-10T08:59:40.937Z,33.75
2019-02-10T09:00:40.969Z,33.75
2019-02-10T09:01:41.022Z,39.38
2019-02-10T09:02:41.074Z,39.38
2019-02-10T09:03:41.127Z,45.00
2019-02-10T09:04:41.138Z,50.63
2019-02-10T09:05:41.195Z,50.63
2019-02-10T09:06:41.293Z,56.25
2019-02-10T09:07:41.298Z,56.25
2019-02-10T09:08:41.324Z,61.88
2019-02-10T09:09:41.375Z,67.50
2019-02-10T09:10:41.419Z,67.50
2019-02-10T09:11:41.462Z,73.13
2019-02-10T09:12:41.529Z,73.13
2019-02-10T09:13:41.597Z,78.75
2019-02-10T09:14:41.648Z,78.75
2019-02-10T09:15:41.706Z,84.38
2019-02-10T09:16:41.739Z,84.38
2019-02-10T09:17:41.751Z,84.38
2019-02-10T09:18:41.769Z,84.38
2019-02-10T09:19:41.834Z,90.00
2019-02-10T09:20:41.901Z,90.00
2019-02-10T09:21:41.911Z,95.63
2019-02-10T09:22:41.977Z,95.63
2019-02-10T09:23:42.000Z,101.25
2019-02-10T09:24:42.057Z,101.25
2019-02-10T09:25:42.119Z,106.88
2019-02-10T09:26:42.154Z,112.50
2019-02-10T09:27:42.182Z,118.13
2019-02-10T09:28:42.233Z,112.50
2019-02-10T09:29:42.288Z,118.13
2019-02-10T09:30:42.345Z,123.75
2019-02-10T09:31:42.380Z,123.75
2019-02-10T09:32:42.435Z,129.38
2019-02-10T09:33:42.471Z,135.00
2019-02-10T09:34:42.515Z,135.00
2019-02-10T09:35:42.560Z,140.63
2019-02-10T09:36:42.617Z,146.25
2019-02-10T09:37:42.656Z,151.88
2019-02-10T09:38:42.701Z,157.50
2019-02-10T09:39:42.744Z,163.13
2019-02-10T09:40:42.783Z,168.75
2019-02-10T09:41:42.842Z,174.38
2019-02-10T09:42:42.933Z,174.38
2019-02-10T09:43:42.934Z,185.63
2019-02-10T09:44:43.008Z,185.63
2019-02-10T09:45:43.062Z,191.25
2019-02-10T09:46:43.045Z,196.88
2019-02-10T09:47:43.130Z,202.50
2019-02-10T09:48:43.196Z,202.50
2019-02-10T09:49:43.247Z,208.13
2019-02-10T09:50:43.242Z,213.75
2019-02-10T09:51:43.302Z,213.75
2019-02-10T09:52:43.328Z,213.75
2019-02-10T09:53:43.392Z,213.75
2019-02-10T09:54:43.417Z,219.38
2019-02-10T09:55:43.518Z,225.00
2019-02-10T09:56:43.523Z,225.00
2019-02-10T09:57:43.579Z,230.63
2019-02-10T09:58:43.605Z,236.25
2019-02-10T09:59:43.656Z,236.25
2019-02-10T10:00:43.691Z,247.50
2019-02-10T10:01:43.758Z,253.13
2019-02-10T10:02:43.809Z,253.13
2019-02-10T10:03:43.829Z,258.75
2019-02-10T10:04:43.892Z,258.75
2019-02-10T10:05:43.937Z,264.38
2019-02-10T10:06:43.980Z,264.38
2019-02-10T10:07:44.050Z,270.00
2019-02-10T10:08:44.125Z,298.13
2019-02-10T10:09:44.124Z,371.25
2019-02-10T10:10:44.162Z,382.50
2019-02-10T10:11:44.207Z,371.25
2019-02-10T10:12:44.320Z,365.63
2019-02-10T10:13:44.310Z,444.38
2019-02-10T10:14:44.362Z,585.00
2019-02-10T10:15:44.390Z,708.75
2019-02-10T10:16:44.462Z,725.63
2019-02-10T10:17:44.524Z,776.25
2019-02-10T10:18:44.556Z,725.63
2019-02-10T10:19:44.591Z,675.00
2019-02-10T10:20:44.678Z,714.38
2019-02-10T10:21:44.684Z,990.00
2019-02-10T10:22:44.749Z,1029.38
2019-02-10T10:23:44.783Z,1063.13
2019-02-10T10:24:50.373Z,1096.88
2019-02-10T10:25:44.875Z,1147.50
2019-02-10T10:26:44.985Z,1209.38
2019-02-10T10:27:44.999Z,1260.00
2019-02-10T10:28:45.041Z,1265.63
2019-02-10T10:29:45.086Z,1260.00
2019-02-10T10:30:45.135Z,1282.50
2019-02-10T10:31:45.213Z,1350.00
2019-02-10T10:32:45.273Z,1333.13
2019-02-10T10:33:45.350Z,1310.63
2019-02-10T10:34:45.342Z,1321.88
2019-02-10T10:35:45.397Z,1389.38
2019-02-10T10:36:45.447Z,1372.50
2019-02-10T10:37:45.486Z,1350.00
2019-02-10T10:38:45.555Z,1338.75
2019-02-10T10:39:45.589Z,1428.75
2019-02-10T10:40:45.673Z,1462.50
2019-02-10T10:41:45.713Z,1473.75
2019-02-10T10:42:45.764Z,1524.38
2019-02-10T10:43:45.831Z,1541.25
2019-02-10T10:44:45.878Z,1501.88
2019-02-10T10:45:45.941Z,1575.00
2019-02-10T10:46:46.054Z,1575.00
2019-02-10T10:47:46.030Z,1732.50
2019-02-10T10:48:46.106Z,1760.63
2019-02-10T10:49:46.153Z,1721.25
2019-02-10T10:50:46.220Z,1586.25
2019-02-10T10:51:46.254Z,1513.13
2019-02-10T10:52:46.319Z,1501.88
2019-02-10T10:53:46.384Z,1563.75
2019-02-10T10:54:46.438Z,1541.25
2019-02-10T10:55:46.499Z,1552.50
2019-02-10T10:56:46.544Z,1524.38
2019-02-10T10:57:46.603Z,1535.63
2019-02-10T10:58:46.662Z,1642.50
2019-02-10T10:59:46.701Z,1704.38
2019-02-10T11:00:46.781Z,1518.75
2019-02-10T11:01:46.813Z,1445.63
2019-02-10T11:02:46.894Z,1642.50
2019-02-10T11:03:46.954Z,1620.00
2019-02-10T11:04:46.970Z,1327.50
2019-02-10T11:05:47.079Z,1248.75
2019-02-10T11:06:47.105Z,1175.63
2019-02-10T11:07:47.161Z,1175.63
2019-02-10T11:08:47.235Z,1080.00
2019-02-10T11:09:47.276Z,1136.25
2019-02-10T11:10:47.390Z,1175.63
2019-02-10T11:11:47.457Z,1237.50
2019-02-10T11:12:47.475Z,1198.13
2019-02-10T11:13:47.515Z,1288.13
2019-02-10T11:14:47.578Z,1254.38
2019-02-10T11:15:47.628Z,1243.13
2019-02-10T11:16:47.729Z,1203.75
2019-02-10T11:17:47.729Z,1237.50
2019-02-10T11:18:47.804Z,1226.25
2019-02-10T11:19:47.869Z,1175.63
2019-02-10T11:20:47.923Z,1175.63
2019-02-10T11:21:47.989Z,1333.13
2019-02-10T11:22:48.047Z,1456.88
2019-02-10T11:23:48.108Z,1485.00
2019-02-10T11:24:48.171Z,1411.88
2019-02-10T11:25:48.224Z,1535.63
2019-02-10T11:26:48.318Z,1614.38
2019-02-10T11:27:48.356Z,1642.50
2019-02-10T11:28:48.389Z,1698.75
2019-02-10T11:29:48.491Z,1687.50
2019-02-10T11:30:48.524Z,1721.25
2019-02-10T11:31:48.562Z,1738.13
2019-02-10T11:32:48.652Z,1715.63
2019-02-10T11:33:48.697Z,1704.38
2019-02-10T11:34:48.772Z,1676.25
2019-02-10T11:35:48.827Z,1659.38
2019-02-10T11:36:48.883Z,1693.13
2019-02-10T11:37:48.942Z,1715.63
2019-02-10T11:38:49.008Z,1749.38
2019-02-10T11:39:49.093Z,1794.38
2019-02-10T11:40:49.124Z,1805.63
2019-02-10T11:41:49.164Z,1906.88
2019-02-10T11:42:49.292Z,1895.63
2019-02-10T11:43:49.329Z,1805.63
2019-02-10T11:44:49.396Z,1856.25
2019-02-10T11:45:49.415Z,1985.63
2019-02-10T11:46:49.467Z,2075.63
2019-02-10T11:47:49.524Z,1980.00
2019-02-10T11:48:49.590Z,1940.63
2019-02-10T11:49:49.693Z,2092.50
2019-02-10T11:50:49.714Z,2025.00
2019-02-10T11:51:49.797Z,1901.25
2019-02-10T11:52:49.827Z,1884.38
2019-02-10T11:53:49.905Z,1839.38
2019-02-10T11:54:49.955Z,1766.25
2019-02-10T11:55:50.053Z,1794.38
2019-02-10T11:56:50.085Z,1884.38
2019-02-10T11:57:50.150Z,1816.88
2019-02-10T11:58:50.216Z,1991.25
2019-02-10T11:59:50.257Z,1957.50
2019-02-10T12:00:50.326Z,1929.38
2019-02-10T12:01:50.427Z,2013.75
2019-02-10T12:02:50.487Z,2002.50
2019-02-10T12:03:50.502Z,1828.13
2019-02-10T12:04:50.613Z,1715.63
2019-02-10T12:05:50.614Z,1586.25
2019-02-10T12:06:50.705Z,1805.63
2019-02-10T12:07:50.715Z,1980.00
2019-02-10T12:08:50.810Z,1996.88
2019-02-10T12:09:51.864Z,1940.63
2019-02-10T12:10:50.941Z,1895.63
2019-02-10T12:11:50.975Z,1867.50
2019-02-10T12:12:51.040Z,2098.13
2019-02-10T12:13:51.109Z,2053.13
2019-02-10T12:14:51.168Z,1935.00
2019-02-10T12:15:51.234Z,2019.38
2019-02-10T12:16:51.297Z,2036.25
2019-02-10T12:17:51.349Z,2070.00
2019-02-10T12:18:51.409Z,2109.38
2019-02-10T12:19:51.476Z,2120.63
2019-02-10T12:20:51.527Z,2081.25
2019-02-10T12:21:51.596Z,2115.00
2019-02-10T12:22:51.665Z,2103.75
2019-02-10T12:23:51.682Z,2092.50
2019-02-10T12:24:51.815Z,2109.38
2019-02-10T12:25:51.835Z,2070.00
2019-02-10T12:26:51.897Z,2182.50
2019-02-10T12:27:51.951Z,2227.50
2019-02-10T12:28:52.049Z,2188.13
2019-02-10T12:29:52.084Z,2205.00
2019-02-10T12:30:52.145Z,2154.38
2019-02-10T12:31:52.194Z,2041.88
2019-02-10T12:32:52.320Z,2081.25
2019-02-10T12:33:52.353Z,2205.00
2019-02-10T12:34:52.354Z,2300.63
2019-02-10T12:35:58.204Z,2283.75
2019-02-10T12:36:52.500Z,2193.75
2019-02-10T12:37:52.568Z,2188.13
2019-02-10T12:38:52.628Z,2334.38
2019-02-10T12:39:59.675Z,2306.25
2019-02-10T12:40:52.743Z,2238.75
2019-02-10T12:41:52.820Z,2345.63
2019-02-10T12:42:52.874Z,2424.38
2019-02-10T12:43:52.931Z,2430.00
2019-02-10T12:44:53.001Z,2323.13
2019-02-10T12:45:53.067Z,2368.13
2019-02-10T12:46:53.133Z,2356.88
2019-02-10T12:47:53.194Z,2317.50
2019-02-10T12:48:53.255Z,2278.13
2019-02-10T12:49:53.292Z,2351.25
2019-02-10T12:50:53.351Z,2323.13
2019-02-10T12:51:53.417Z,2250.00
2019-02-10T12:52:53.501Z,2261.25
2019-02-10T12:53:53.527Z,2300.63
2019-02-10T12:54:53.614Z,2250.00
2019-02-10T12:55:53.685Z,2283.75
2019-02-10T12:56:53.720Z,2351.25
2019-02-10T12:57:53.799Z,2351.25